createdAt,value
2017-06-22T10:51:23.243Z,240
2017-06-22T10:51:48.736Z,250
2017-06-22T10:52:14.216Z,255
2017-06-22T10:52:39.693Z,265
2017-06-22T10:53:05.155Z,270
2017-06-22T10:53:30.597Z,275
2017-06-22T10:53:56.089Z,280
2017-06-22T10:54:21.669Z,285
2017-06-22T10:54:47.102Z,285
2017-06-22T10:55:12.600Z,285
2017-06-22T10:55:38.068Z,280
2017-06-22T10:56:03.578Z,280
2017-06-22T10:56:29.041Z,280
2017-06-22T10:56:54.495Z,270
2017-06-22T10:57:19.955Z,270
2017-06-22T10:57:45.468Z,265
2017-06-22T10:58:10.957Z,265
2017-06-22T10:58:36.438Z,260
2017-06-22T10:59:01.915Z,255
2017-06-22T10:59:27.384Z,260
2017-06-22T10:59:52.883Z,255
2017-06-22T11:00:18.388Z,255
2017-06-22T11:00:43.872Z,255
2017-06-22T11:01:09.359Z,250
2017-06-22T11:01:34.836Z,245
2017-06-22T11:02:00.318Z,240
2017-06-22T11:02:25.815Z,230
2017-06-22T11:02:51.288Z,225
2017-06-22T11:03:16.755Z,230
2017-06-22T11:03:42.236Z,235
2017-06-22T11:04:07.708Z,235
2017-06-22T11:04:33.183Z,235
2017-06-22T11:04:58.645Z,230
2017-06-22T11:05:24.144Z,230
2017-06-22T11:05:49.631Z,230
2017-06-22T11:06:15.098Z,235
2017-06-22T11:06:40.589Z,235
2017-06-22T11:07:06.055Z,240
2017-06-22T11:07:31.506Z,240
2017-06-22T11:07:56.990Z,245
2017-06-22T11:08:22.480Z,245
2017-06-22T11:08:47.951Z,245
2017-06-22T11:09:13.414Z,245
2017-06-22T11:09:38.918Z,245
2017-06-22T11:10:04.372Z,245
2017-06-22T11:10:29.842Z,250
2017-06-22T11:10:55.301Z,250
2017-06-22T11:11:20.764Z,240
2017-06-22T11:11:46.236Z,245
2017-06-22T11:12:11.700Z,245
2017-06-22T11:12:37.184Z,245
2017-06-22T11:13:02.660Z,240
2017-06-22T11:13:28.150Z,245
2017-06-22T11:13:53.617Z,240
2017-06-22T11:14:19.148Z,240
2017-06-22T11:14:44.613Z,235
2017-06-22T11:15:10.080Z,235
2017-06-22T11:15:35.524Z,235
2017-06-22T11:16:00.997Z,230
2017-06-22T11:16:26.493Z,225
2017-06-22T11:16:51.968Z,225
2017-06-22T11:17:17.458Z,225
2017-06-22T11:17:42.910Z,230
2017-06-22T11:18:08.377Z,235
2017-06-22T11:18:33.850Z,235
2017-06-22T11:18:59.365Z,235
2017-06-22T11:19:24.836Z,235
2017-06-22T11:19:50.337Z,235
2017-06-22T11:20:15.815Z,235
2017-06-22T11:20:41.303Z,240
2017-06-22T11:21:06.820Z,240
2017-06-22T11:21:32.308Z,240
2017-06-22T11:21:57.779Z,240
2017-06-22T11:22:23.280Z,235
2017-06-22T11:22:48.750Z,240
2017-06-22T11:23:14.239Z,240
2017-06-22T11:23:39.664Z,235
2017-06-22T11:24:05.106Z,235
2017-06-22T11:24:30.588Z,235
2017-06-22T11:24:56.088Z,230
2017-06-22T11:25:21.569Z,235
2017-06-22T11:25:47.058Z,230
2017-06-22T11:26:12.536Z,230
2017-06-22T11:26:38.017Z,225
2017-06-22T11:27:03.488Z,225
2017-06-22T11:27:28.958Z,225
2017-06-22T11:27:54.440Z,220
2017-06-22T11:28:19.956Z,220
2017-06-22T11:28:45.423Z,220
2017-06-22T11:29:10.901Z,225
2017-06-22T11:29:36.370Z,225
2017-06-22T11:30:01.833Z,225
2017-06-22T11:30:27.315Z,225
2017-06-22T11:30:52.814Z,225
2017-06-22T11:31:18.300Z,220
2017-06-22T11:31:43.780Z,215
2017-06-22T11:32:09.260Z,215
2017-06-22T11:32:34.720Z,210
2017-06-22T11:33:00.205Z,215
2017-06-22T11:33:25.670Z,210
2017-06-22T11:33:51.132Z,210
2017-06-22T11:34:16.598Z,215
2017-06-22T11:34:42.168Z,210
2017-06-22T11:35:07.624Z,210
2017-06-22T11:35:33.118Z,210
2017-06-22T11:35:58.587Z,210
2017-06-22T11:36:24.088Z,210
2017-06-22T11:36:49.571Z,210
2017-06-22T11:37:15.067Z,215
2017-06-22T11:37:40.541Z,215
2017-06-22T11:38:05.996Z,210
2017-06-22T11:38:31.447Z,210
2017-06-22T11:38:56.960Z,205
2017-06-22T11:39:22.476Z,205
2017-06-22T11:39:47.984Z,205
2017-06-22T11:40:13.466Z,210
2017-06-22T11:40:38.925Z,210
2017-06-22T11:41:04.401Z,210
2017-06-22T11:41:29.890Z,215
2017-06-22T11:41:55.357Z,210
2017-06-22T11:42:20.844Z,210
2017-06-22T11:42:46.326Z,210
2017-06-22T11:43:11.776Z,210
2017-06-22T11:43:37.229Z,210
2017-06-22T11:44:02.707Z,210
2017-06-22T11:44:28.176Z,210
2017-06-22T11:44:53.650Z,210
2017-06-22T11:45:19.129Z,210
2017-06-22T11:45:44.621Z,210
2017-06-22T11:46:10.106Z,205
2017-06-22T11:46:35.607Z,205
2017-06-22T11:47:01.078Z,200
2017-06-22T11:47:26.562Z,200
2017-06-22T11:47:52.014Z,195
2017-06-22T11:48:17.513Z,195
2017-06-22T11:48:42.979Z,195
2017-06-22T11:49:08.441Z,195
2017-06-22T11:49:33.936Z,195
2017-06-22T11:49:59.446Z,190
2017-06-22T11:50:24.923Z,190
2017-06-22T11:51:48.390Z,190
2017-06-22T11:52:13.870Z,190
2017-06-22T11:52:39.370Z,190
2017-06-22T11:53:04.828Z,190
2017-06-22T11:53:30.309Z,195
2017-06-22T11:53:55.801Z,195
2017-06-22T11:54:21.280Z,195
2017-06-22T11:54:46.762Z,190
2017-06-22T11:55:12.253Z,190
2017-06-22T11:55:37.744Z,190
2017-06-22T11:56:03.241Z,190
2017-06-22T11:56:28.712Z,190
2017-06-22T11:56:54.173Z,185
2017-06-22T11:57:19.654Z,185
2017-06-22T11:57:45.136Z,185
2017-06-22T11:58:10.600Z,180
2017-06-22T11:58:36.057Z,180
2017-06-22T11:59:01.555Z,185
2017-06-22T11:59:27.040Z,185
2017-06-22T11:59:52.526Z,190
2017-06-22T12:00:17.960Z,190
2017-06-22T12:00:43.444Z,185
2017-06-22T12:01:08.906Z,190
2017-06-22T12:01:34.366Z,190
2017-06-22T12:01:59.837Z,185
2017-06-22T12:02:25.281Z,185
2017-06-22T12:02:50.768Z,185
2017-06-22T12:03:16.261Z,185
2017-06-22T12:03:41.728Z,185
2017-06-22T12:04:07.212Z,185
2017-06-22T12:04:32.696Z,185
2017-06-22T12:04:58.160Z,185
2017-06-22T12:05:23.634Z,185
2017-06-22T12:05:49.106Z,185
2017-06-22T12:06:14.556Z,185
2017-06-22T12:06:40.032Z,180
2017-06-22T12:07:05.501Z,180
2017-06-22T12:07:30.981Z,185
2017-06-22T12:07:56.468Z,185
2017-06-22T12:08:21.952Z,185
2017-06-22T12:08:47.422Z,185
2017-06-22T12:09:12.891Z,185
2017-06-22T12:09:38.370Z,185
2017-06-22T12:10:03.855Z,185
2017-06-22T12:10:29.337Z,185
2017-06-22T12:10:54.808Z,190
2017-06-22T12:11:20.312Z,190
2017-06-22T12:11:45.779Z,190
2017-06-22T12:12:11.279Z,190
2017-06-22T12:12:36.744Z,195
2017-06-22T12:13:02.220Z,190
2017-06-22T12:13:27.711Z,190
2017-06-22T12:13:53.171Z,190
2017-06-22T12:14:18.635Z,190
2017-06-22T12:14:44.135Z,185
2017-06-22T12:15:09.602Z,180
2017-06-22T12:15:35.104Z,175
2017-06-22T12:16:00.603Z,175
2017-06-22T12:16:26.048Z,180
2017-06-22T12:16:51.532Z,180
2017-06-22T12:17:17.011Z,180
2017-06-22T12:17:42.490Z,180
2017-06-22T12:18:08.003Z,180
2017-06-22T12:18:33.432Z,185
2017-06-22T12:18:58.881Z,180
2017-06-22T12:19:24.346Z,180
2017-06-22T12:19:49.847Z,180
2017-06-22T12:20:15.311Z,180
2017-06-22T12:20:40.783Z,180
2017-06-22T12:21:06.290Z,175
2017-06-22T12:21:31.745Z,175
2017-06-22T12:21:57.233Z,170
2017-06-22T12:22:22.708Z,165
2017-06-22T12:22:48.236Z,160
2017-06-22T12:23:13.794Z,155
2017-06-22T12:23:39.292Z,155
2017-06-22T12:24:04.777Z,155
2017-06-22T12:24:30.254Z,155
2017-06-22T12:24:55.706Z,160
2017-06-22T12:25:21.214Z,165
2017-06-22T12:25:46.762Z,160
2017-06-22T12:26:12.249Z,165
2017-06-22T12:26:37.736Z,170
2017-06-22T12:27:03.239Z,165
2017-06-22T12:27:28.718Z,165
2017-06-22T12:27:54.169Z,160
2017-06-22T12:28:19.637Z,165
2017-06-22T12:28:45.158Z,170
2017-06-22T12:29:10.622Z,175
2017-06-22T12:29:36.140Z,175
2017-06-22T12:30:01.632Z,170
2017-06-22T12:30:27.095Z,170
2017-06-22T12:30:52.581Z,170
2017-06-22T12:31:18.063Z,175
2017-06-22T12:31:43.545Z,175
2017-06-22T12:32:08.990Z,180
2017-06-22T12:32:34.455Z,170
2017-06-22T12:32:59.966Z,170
2017-06-22T12:33:25.420Z,170
2017-06-22T12:33:50.886Z,175
2017-06-22T12:34:16.375Z,175
2017-06-22T12:34:41.819Z,175
2017-06-22T12:35:07.307Z,175
2017-06-22T12:35:32.762Z,175
2017-06-22T12:35:58.248Z,180
2017-06-22T12:36:23.729Z,185
2017-06-22T12:36:49.198Z,180
2017-06-22T12:37:14.709Z,180
2017-06-22T12:37:40.185Z,175
2017-06-22T12:38:05.647Z,175
2017-06-22T12:38:31.121Z,170
2017-06-22T12:38:56.598Z,170
2017-06-22T12:39:22.099Z,170
2017-06-22T12:39:47.563Z,170
2017-06-22T12:40:13.018Z,175
2017-06-22T12:40:38.545Z,175
2017-06-22T12:41:04.019Z,180
2017-06-22T12:41:29.517Z,180
2017-06-22T12:41:54.967Z,185
2017-06-22T12:42:20.440Z,185
2017-06-22T12:42:45.971Z,185
2017-06-22T12:43:11.434Z,190
2017-06-22T12:43:36.949Z,195
2017-06-22T12:44:02.427Z,200
2017-06-22T12:44:27.880Z,200
2017-06-22T12:44:53.361Z,200
2017-06-22T12:45:18.851Z,200
2017-06-22T12:45:44.340Z,200
2017-06-22T12:46:09.797Z,200
2017-06-22T12:46:35.265Z,200
2017-06-22T12:47:00.748Z,200
2017-06-22T12:47:26.244Z,200
2017-06-22T12:47:51.739Z,200
2017-06-22T12:48:17.230Z,195
2017-06-22T12:48:42.702Z,190
2017-06-22T12:49:08.196Z,190
2017-06-22T12:49:33.711Z,190
2017-06-22T12:49:59.178Z,190
2017-06-22T12:50:24.653Z,195
2017-06-22T12:50:50.177Z,200
2017-06-22T12:51:15.655Z,200
2017-06-22T12:51:41.093Z,200
2017-06-22T12:52:06.561Z,195
2017-06-22T12:52:32.024Z,195
2017-06-22T12:52:57.471Z,195
2017-06-22T12:53:22.960Z,190
2017-06-22T12:53:48.484Z,185
2017-06-22T12:54:14.003Z,185
2017-06-22T12:54:39.481Z,180
2017-06-22T12:55:04.968Z,185
2017-06-22T12:55:30.429Z,180
2017-06-22T12:55:55.883Z,175
2017-06-22T12:56:21.323Z,175
2017-06-22T12:56:46.809Z,170
2017-06-22T12:57:12.310Z,175
2017-06-22T12:57:37.789Z,175
2017-06-22T12:58:03.241Z,175
2017-06-22T12:58:28.724Z,180
2017-06-22T12:58:54.224Z,180
2017-06-22T12:59:19.704Z,180
2017-06-22T12:59:45.165Z,180
2017-06-22T13:00:10.658Z,175
2017-06-22T13:00:36.131Z,170
2017-06-22T13:01:01.634Z,170
2017-06-22T13:01:27.127Z,175
2017-06-22T13:01:52.599Z,175
2017-06-22T13:02:18.070Z,170
2017-06-22T13:02:43.538Z,165
2017-06-22T13:03:09.003Z,165
2017-06-22T13:03:34.491Z,165
2017-06-22T13:03:59.955Z,165
2017-06-22T13:04:25.423Z,165
2017-06-22T13:04:50.908Z,165
2017-06-22T13:05:16.394Z,160
2017-06-22T13:05:41.869Z,155
2017-06-22T13:06:07.361Z,150
2017-06-22T13:07:15.587Z,140
2017-06-22T13:07:41.058Z,145
2017-06-22T13:08:06.548Z,145
2017-06-22T13:08:32.031Z,150
2017-06-22T13:08:57.504Z,155
2017-06-22T13:09:22.967Z,155
2017-06-22T13:09:48.406Z,155
2017-06-22T13:10:13.899Z,160
2017-06-22T13:10:39.377Z,165
2017-06-22T13:11:04.852Z,160
2017-06-22T13:11:30.335Z,160
2017-06-22T13:11:55.836Z,160
2017-06-22T13:12:21.298Z,165
2017-06-22T13:12:46.792Z,165
2017-06-22T13:13:12.306Z,170
2017-06-22T13:13:37.775Z,170
2017-06-22T13:14:03.265Z,175
2017-06-22T13:14:28.773Z,175
2017-06-22T13:14:54.230Z,175
2017-06-22T13:15:19.738Z,175
2017-06-22T13:15:45.196Z,175
2017-06-22T13:16:10.689Z,175
2017-06-22T13:16:36.197Z,175
2017-06-22T13:17:01.649Z,175
2017-06-22T13:17:27.115Z,175
2017-06-22T13:17:52.586Z,175
2017-06-22T13:18:18.043Z,170
2017-06-22T13:18:43.525Z,170
2017-06-22T13:19:08.968Z,170
2017-06-22T13:19:34.442Z,170
2017-06-22T13:19:59.940Z,170
2017-06-22T13:20:25.414Z,165
2017-06-22T13:20:50.862Z,170
2017-06-22T13:21:16.325Z,170
2017-06-22T13:21:41.852Z,170
2017-06-22T13:22:07.317Z,170
2017-06-22T13:22:32.802Z,170
2017-06-22T13:22:58.265Z,165
2017-06-22T13:23:23.741Z,165
2017-06-22T13:23:49.194Z,165
2017-06-22T13:24:14.679Z,160
2017-06-22T13:24:40.123Z,160
2017-06-22T13:25:05.625Z,160
2017-06-22T13:25:31.095Z,155
2017-06-22T13:25:56.540Z,155
2017-06-22T13:26:22.023Z,155
2017-06-22T13:26:47.506Z,155
2017-06-22T13:27:12.975Z,155
2017-06-22T13:27:38.444Z,150
2017-06-22T13:28:03.934Z,150
2017-06-22T13:28:29.442Z,150
2017-06-22T13:28:54.915Z,145
2017-06-22T13:29:20.374Z,145
2017-06-22T13:29:45.890Z,145
2017-06-22T13:30:11.351Z,145
2017-06-22T13:30:36.835Z,145
2017-06-22T13:31:02.311Z,150
2017-06-22T13:31:27.772Z,150
2017-06-22T13:31:53.237Z,150
2017-06-22T13:32:18.711Z,145
2017-06-22T13:32:44.157Z,145
2017-06-22T13:33:09.651Z,140
2017-06-22T13:33:35.120Z,140
2017-06-22T13:34:00.594Z,140
2017-06-22T13:34:26.047Z,140
2017-06-22T13:34:51.515Z,140
2017-06-22T13:35:16.973Z,140
2017-06-22T13:35:42.456Z,140
2017-06-22T13:36:07.966Z,135
2017-06-22T13:36:33.447Z,135
2017-06-22T13:36:58.919Z,135
2017-06-22T13:37:24.381Z,135
2017-06-22T13:38:42.814Z,135
2017-06-22T13:39:08.296Z,135
2017-06-22T13:39:33.784Z,135
2017-06-22T13:39:59.296Z,135
2017-06-22T13:40:24.759Z,135
2017-06-22T13:40:50.245Z,130
2017-06-22T13:41:15.728Z,130
2017-06-22T13:41:41.219Z,130
2017-06-22T13:42:06.681Z,125
2017-06-22T13:42:32.141Z,125
2017-06-22T13:42:57.641Z,125
2017-06-22T13:43:23.104Z,125
2017-06-22T13:43:48.574Z,125
2017-06-22T13:44:14.055Z,125
2017-06-22T13:44:39.586Z,125
2017-06-22T13:45:05.004Z,130
2017-06-22T13:45:30.470Z,130
2017-06-22T13:45:55.957Z,130
2017-06-22T13:46:21.431Z,130
2017-06-22T13:46:46.870Z,130
2017-06-22T13:47:12.349Z,130
2017-06-22T13:47:37.820Z,130
2017-06-22T13:48:03.294Z,130
2017-06-22T13:48:28.766Z,130
2017-06-22T13:48:54.218Z,130
2017-06-22T13:49:19.697Z,130
2017-06-22T13:49:45.172Z,130
2017-06-22T13:50:10.630Z,135
2017-06-22T13:50:36.119Z,135
2017-06-22T13:51:01.617Z,135
2017-06-22T13:51:27.092Z,135
2017-06-22T13:51:52.582Z,135
2017-06-22T13:52:18.054Z,135
2017-06-22T13:52:43.516Z,135
2017-06-22T13:53:09.025Z,135
2017-06-22T13:53:34.485Z,130
2017-06-22T13:53:59.992Z,130
2017-06-22T13:54:25.465Z,130
2017-06-22T13:54:50.946Z,135
2017-06-22T13:55:16.446Z,135
2017-06-22T13:55:41.921Z,140
2017-06-22T13:56:07.403Z,145
2017-06-22T13:56:32.882Z,145
2017-06-22T13:56:58.372Z,150
2017-06-22T13:57:23.858Z,150
2017-06-22T13:57:49.334Z,150
2017-06-22T13:58:14.834Z,150
2017-06-22T13:58:40.316Z,150
2017-06-22T13:59:05.800Z,150
2017-06-22T13:59:31.265Z,150
2017-06-22T13:59:56.733Z,155
2017-06-22T14:00:22.202Z,155
2017-06-22T14:00:47.671Z,160
2017-06-22T14:01:13.157Z,160
2017-06-22T14:01:38.645Z,160
2017-06-22T14:02:04.119Z,160
2017-06-22T14:02:29.594Z,160
2017-06-22T14:02:55.086Z,160
2017-06-22T14:03:20.557Z,160
2017-06-22T14:03:46.026Z,160
2017-06-22T14:04:11.522Z,155
2017-06-22T14:04:36.971Z,155
2017-06-22T14:05:02.471Z,150
2017-06-22T14:05:27.961Z,150
2017-06-22T14:05:53.440Z,150
2017-06-22T14:06:18.946Z,150
2017-06-22T14:06:44.413Z,155
2017-06-22T14:07:09.887Z,155
2017-06-22T14:07:35.332Z,155
2017-06-22T14:08:00.856Z,155
2017-06-22T14:08:26.306Z,160
2017-06-22T14:08:51.785Z,160
2017-06-22T14:09:17.260Z,160
2017-06-22T14:09:42.754Z,160
2017-06-22T14:10:08.215Z,160
2017-06-22T14:10:33.675Z,155
2017-06-22T14:10:59.149Z,155
2017-06-22T14:11:24.621Z,160
2017-06-22T14:11:50.090Z,160
2017-06-22T14:12:15.552Z,160
2017-06-22T14:12:41.003Z,160
2017-06-22T14:13:06.472Z,165
2017-06-22T14:13:31.960Z,165
2017-06-22T14:13:57.430Z,165
2017-06-22T14:14:22.925Z,165
2017-06-22T14:14:48.368Z,170
2017-06-22T14:15:13.898Z,170
2017-06-22T14:15:39.383Z,170
2017-06-22T14:16:04.821Z,170
2017-06-22T14:16:30.296Z,175
2017-06-22T14:16:55.770Z,180
2017-06-22T14:17:21.202Z,185
2017-06-22T14:17:46.715Z,185
2017-06-22T14:18:12.193Z,185
2017-06-22T14:18:37.678Z,190
2017-06-22T14:19:03.163Z,195
2017-06-22T14:19:28.649Z,200
2017-06-22T14:19:54.137Z,200
2017-06-22T14:20:19.624Z,205
2017-06-22T14:20:45.112Z,205
2017-06-22T14:21:10.609Z,205
2017-06-22T14:21:36.082Z,205
2017-06-22T14:22:01.607Z,210
2017-06-22T14:22:27.087Z,200
2017-06-22T14:22:52.574Z,200
2017-06-22T14:23:18.049Z,200
2017-06-22T14:23:43.574Z,200
2017-06-22T14:24:09.073Z,195
2017-06-22T14:24:34.519Z,190
2017-06-22T14:24:59.976Z,185
2017-06-22T14:25:25.456Z,180
2017-06-22T14:25:50.917Z,180
2017-06-22T14:26:16.402Z,175
2017-06-22T14:26:41.882Z,170
2017-06-22T14:27:07.376Z,165
2017-06-22T14:27:32.830Z,165
2017-06-22T14:27:58.311Z,165
2017-06-22T14:28:23.779Z,170
2017-06-22T14:28:49.266Z,170
2017-06-22T14:29:14.735Z,175
2017-06-22T14:29:40.220Z,175
2017-06-22T14:30:05.698Z,180
2017-06-22T14:30:31.157Z,180
2017-06-22T14:30:56.618Z,180
2017-06-22T14:31:22.122Z,185
2017-06-22T14:31:47.584Z,195
2017-06-22T14:32:13.061Z,200
2017-06-22T14:32:38.522Z,200
2017-06-22T14:33:03.988Z,195
2017-06-22T14:33:29.472Z,190
2017-06-22T14:33:54.992Z,185
2017-06-22T14:34:20.503Z,180
2017-06-22T14:34:45.971Z,180
2017-06-22T14:35:11.452Z,175
2017-06-22T14:35:36.925Z,175
2017-06-22T14:36:02.414Z,175
2017-06-22T14:36:27.895Z,175
2017-06-22T14:36:53.349Z,175
2017-06-22T14:37:18.826Z,175
2017-06-22T14:37:44.315Z,180
2017-06-22T14:38:09.803Z,175
2017-06-22T14:38:35.277Z,175
2017-06-22T14:39:00.737Z,175
2017-06-22T14:39:26.256Z,170
2017-06-22T14:39:51.690Z,170
2017-06-22T14:40:17.185Z,170
2017-06-22T14:40:42.649Z,165
2017-06-22T14:41:08.103Z,165
2017-06-22T14:41:33.632Z,165
2017-06-22T14:41:59.079Z,165
2017-06-22T14:42:24.557Z,165
2017-06-22T14:42:50.033Z,170
2017-06-22T14:43:15.534Z,170
2017-06-22T14:43:41.012Z,170
2017-06-22T14:44:06.505Z,175
2017-06-22T14:44:31.972Z,175
2017-06-22T14:44:57.485Z,175
2017-06-22T14:45:22.948Z,180
2017-06-22T14:45:48.417Z,190
2017-06-22T14:46:13.918Z,195
2017-06-22T14:46:39.368Z,200
2017-06-22T14:47:04.869Z,205
2017-06-22T14:47:30.371Z,205
2017-06-22T14:47:55.841Z,205
2017-06-22T14:48:21.313Z,210
2017-06-22T14:49:39.699Z,185
2017-06-22T14:50:05.173Z,180
2017-06-22T14:50:30.636Z,175
2017-06-22T14:50:56.122Z,170
2017-06-22T14:51:21.610Z,165
2017-06-22T14:51:47.093Z,160
2017-06-22T14:52:12.576Z,160
2017-06-22T14:52:38.020Z,155
2017-06-22T14:53:03.484Z,155
2017-06-22T14:53:28.956Z,155
2017-06-22T14:53:54.434Z,155
2017-06-22T14:54:19.934Z,160
2017-06-22T14:54:45.434Z,170
2017-06-22T14:55:10.889Z,175
2017-06-22T14:55:36.371Z,180
2017-06-22T14:56:01.849Z,180
2017-06-22T14:56:27.309Z,185
2017-06-22T14:56:52.783Z,185
2017-06-22T14:57:18.258Z,180
2017-06-22T14:57:43.744Z,180
2017-06-22T14:58:09.245Z,175
2017-06-22T14:58:34.690Z,175
2017-06-22T14:59:00.173Z,170
2017-06-22T14:59:25.616Z,165
2017-06-22T14:59:51.129Z,160
2017-06-22T15:00:16.604Z,155
2017-06-22T15:00:42.051Z,155
2017-06-22T15:01:07.564Z,155
2017-06-22T15:01:33.044Z,155
2017-06-22T15:01:58.509Z,160
2017-06-22T15:02:23.963Z,160
2017-06-22T15:02:49.414Z,165
2017-06-22T15:03:14.926Z,165
2017-06-22T15:03:40.381Z,170
2017-06-22T15:04:05.869Z,170
2017-06-22T15:04:31.356Z,170
2017-06-22T15:04:56.825Z,170
2017-06-22T15:05:22.325Z,170
2017-06-22T15:05:47.783Z,165
2017-06-22T15:06:13.270Z,165
2017-06-22T15:06:38.758Z,165
2017-06-22T15:07:04.250Z,160
2017-06-22T15:07:29.694Z,160
2017-06-22T15:07:55.206Z,160
2017-06-22T15:08:20.708Z,155
2017-06-22T15:08:46.181Z,150
2017-06-22T15:09:11.686Z,150
2017-06-22T15:09:37.198Z,145
2017-06-22T15:10:02.647Z,145
2017-06-22T15:10:28.154Z,150
2017-06-22T15:10:53.627Z,150
2017-06-22T15:11:19.097Z,155
2017-06-22T15:11:44.616Z,150
2017-06-22T15:12:10.078Z,150
2017-06-22T15:12:35.547Z,145
2017-06-22T15:13:01.016Z,145
2017-06-22T15:13:26.445Z,140
2017-06-22T15:13:51.899Z,135
2017-06-22T15:14:17.409Z,135
2017-06-22T15:14:42.878Z,135
2017-06-22T15:15:08.347Z,135
2017-06-22T15:15:33.809Z,135
2017-06-22T15:15:59.312Z,135
2017-06-22T15:16:24.786Z,135
2017-06-22T15:16:50.282Z,130
2017-06-22T15:17:15.723Z,130
2017-06-22T15:17:41.210Z,125
2017-06-22T15:18:06.657Z,125
2017-06-22T15:18:32.128Z,120
2017-06-22T15:18:57.641Z,120
2017-06-22T15:19:23.186Z,115
2017-06-22T15:19:48.652Z,115
2017-06-22T15:20:14.139Z,115
2017-06-22T15:20:39.601Z,115
2017-06-22T15:21:05.065Z,120
2017-06-22T15:21:30.516Z,120
2017-06-22T15:21:55.963Z,125
2017-06-22T15:22:21.427Z,130
2017-06-22T15:22:46.860Z,140
2017-06-22T15:23:12.322Z,145
2017-06-22T15:23:37.813Z,155
2017-06-22T15:24:03.253Z,165
2017-06-22T15:24:28.745Z,180
2017-06-22T15:24:54.212Z,180
2017-06-22T15:25:19.680Z,185
2017-06-22T15:25:45.154Z,190
2017-06-22T15:26:10.622Z,195
2017-06-22T15:26:36.148Z,200
2017-06-22T15:27:01.636Z,200
2017-06-22T15:27:27.106Z,205
2017-06-22T15:27:52.599Z,195
2017-06-22T15:28:18.073Z,195
2017-06-22T15:28:43.562Z,185
2017-06-22T15:29:09.162Z,185
2017-06-22T15:29:34.807Z,175
2017-06-22T15:30:00.261Z,165
2017-06-22T15:30:25.790Z,160
2017-06-22T15:30:51.288Z,150
2017-06-22T15:31:16.876Z,140
2017-06-22T15:31:42.351Z,130
2017-06-22T15:32:07.852Z,125
2017-06-22T15:32:33.329Z,115
2017-06-22T15:32:58.793Z,115
2017-06-22T15:33:24.279Z,110
2017-06-22T15:33:49.742Z,110
2017-06-22T15:34:15.200Z,110
2017-06-22T15:34:40.681Z,115
2017-06-22T15:35:06.151Z,115
2017-06-22T15:35:31.630Z,115
2017-06-22T15:35:57.114Z,115
2017-06-22T15:36:22.625Z,115
2017-06-22T15:36:48.078Z,120
2017-06-22T15:37:13.589Z,120
2017-06-22T15:37:39.090Z,125
2017-06-22T15:38:04.566Z,130
2017-06-22T15:38:30.052Z,135
2017-06-22T15:38:55.521Z,135
2017-06-22T15:39:21.009Z,135
2017-06-22T15:39:46.538Z,135
2017-06-22T15:40:12.014Z,135
2017-06-22T15:40:37.510Z,130
2017-06-22T15:41:03.073Z,130
2017-06-22T15:41:28.497Z,125
2017-06-22T15:41:53.994Z,120
2017-06-22T15:42:19.521Z,115
2017-06-22T15:42:45.002Z,115
2017-06-22T15:43:10.552Z,110
2017-06-22T15:43:36.036Z,110
2017-06-22T15:44:01.514Z,110
2017-06-22T15:44:26.986Z,110
2017-06-22T15:44:52.470Z,105
2017-06-22T15:45:17.964Z,105
2017-06-22T15:45:43.446Z,105
2017-06-22T15:46:08.969Z,105
2017-06-22T15:46:34.535Z,110
2017-06-22T15:47:00.009Z,110
2017-06-22T15:47:25.468Z,110
2017-06-22T15:47:50.909Z,115
2017-06-22T15:48:16.407Z,120
2017-06-22T15:48:41.884Z,125
2017-06-22T15:49:07.362Z,130
2017-06-22T15:49:32.836Z,130
2017-06-22T15:49:58.330Z,135
2017-06-22T15:50:23.801Z,135
2017-06-22T15:50:49.257Z,140
2017-06-22T15:51:14.734Z,140
2017-06-22T15:51:40.215Z,145
2017-06-22T15:52:05.665Z,150
2017-06-22T15:52:31.148Z,150
2017-06-22T15:52:56.625Z,155
2017-06-22T15:53:22.097Z,160
2017-06-22T15:53:47.563Z,160
2017-06-22T15:54:13.082Z,165
2017-06-22T15:54:38.557Z,165
2017-06-22T15:55:04.043Z,165
2017-06-22T15:55:29.506Z,165
2017-06-22T15:55:54.973Z,165
2017-06-22T15:56:20.504Z,170
2017-06-22T15:56:46.007Z,170
2017-06-22T15:57:11.475Z,170
2017-06-22T15:57:36.953Z,165
2017-06-22T15:58:02.493Z,165
2017-06-22T15:58:27.957Z,165
2017-06-22T15:58:53.416Z,165
2017-06-22T15:59:18.891Z,170
2017-06-22T15:59:44.375Z,170
2017-06-22T16:00:09.844Z,175
2017-06-22T16:00:35.372Z,185
2017-06-22T16:01:00.832Z,180
2017-06-22T16:01:26.376Z,185
2017-06-22T16:01:51.911Z,185
2017-06-22T16:02:17.398Z,185
2017-06-22T16:02:42.871Z,185
2017-06-22T16:03:08.365Z,185
2017-06-22T16:03:33.857Z,180
2017-06-22T16:03:59.436Z,180
2017-06-22T16:04:24.987Z,175
2017-06-22T16:04:50.482Z,175
2017-06-22T16:05:15.949Z,175
2017-06-22T16:05:41.427Z,175
2017-06-22T16:06:06.948Z,170
2017-06-22T16:06:32.432Z,165
2017-06-22T16:06:57.947Z,160
2017-06-22T16:07:23.423Z,155
2017-06-22T16:07:48.874Z,150
2017-06-22T16:08:14.345Z,150
2017-06-22T16:08:39.810Z,150
2017-06-22T16:09:05.282Z,150
2017-06-22T16:09:30.762Z,150
2017-06-22T16:09:56.228Z,145
2017-06-22T16:10:21.740Z,145
2017-06-22T16:10:47.199Z,145
2017-06-22T16:11:12.688Z,140
2017-06-22T16:11:38.159Z,135
2017-06-22T16:12:03.678Z,125
2017-06-22T16:12:29.125Z,115
2017-06-22T16:12:54.579Z,110
2017-06-22T16:13:20.092Z,100
2017-06-22T16:13:45.633Z,100
2017-06-22T16:14:11.113Z,100
2017-06-22T16:14:36.597Z,95
2017-06-22T16:15:02.102Z,95
2017-06-22T16:15:27.636Z,95
2017-06-22T16:15:53.086Z,100
2017-06-22T16:17:01.322Z,100
2017-06-22T16:17:26.814Z,100
2017-06-22T16:17:52.280Z,100
2017-06-22T16:18:17.767Z,100
2017-06-22T16:18:43.237Z,100
2017-06-22T16:19:08.701Z,100
2017-06-22T16:19:34.166Z,100
2017-06-22T16:19:59.644Z,100
2017-06-22T16:20:25.102Z,100
2017-06-22T16:20:50.621Z,100
2017-06-22T16:21:16.060Z,105
2017-06-22T16:21:41.565Z,110
2017-06-22T16:22:07.028Z,115
2017-06-22T16:22:32.507Z,120
2017-06-22T16:22:57.985Z,125
2017-06-22T16:23:23.464Z,135
2017-06-22T16:23:48.985Z,140
2017-06-22T16:24:14.498Z,150
2017-06-22T16:24:39.976Z,155
2017-06-22T16:25:05.477Z,165
2017-06-22T16:25:30.951Z,175
2017-06-22T16:25:56.415Z,185
2017-06-22T16:26:21.903Z,195
2017-06-22T16:26:47.375Z,200
2017-06-22T16:27:12.843Z,210
2017-06-22T16:27:38.349Z,205
2017-06-22T16:28:03.802Z,205
2017-06-22T16:28:29.261Z,205
2017-06-22T16:28:54.734Z,200
2017-06-22T16:29:20.214Z,190
2017-06-22T16:29:45.703Z,180
2017-06-22T16:30:11.298Z,170
2017-06-22T16:30:36.853Z,170
2017-06-22T16:31:02.274Z,160
2017-06-22T16:31:27.826Z,155
2017-06-22T16:31:53.276Z,155
2017-06-22T16:32:18.804Z,155
2017-06-22T16:32:44.300Z,150
2017-06-22T16:33:09.841Z,150
2017-06-22T16:33:35.323Z,145
2017-06-22T16:34:00.803Z,145
2017-06-22T16:34:26.293Z,145
2017-06-22T16:34:51.764Z,140
2017-06-22T16:35:17.232Z,145
2017-06-22T16:35:42.743Z,145
2017-06-22T16:36:08.210Z,150
2017-06-22T16:36:33.714Z,150
2017-06-22T16:36:59.169Z,150
2017-06-22T16:37:24.665Z,150
2017-06-22T16:37:50.183Z,150
2017-06-22T16:38:15.664Z,150
2017-06-22T16:38:41.154Z,145
2017-06-22T16:39:06.623Z,135
2017-06-22T16:39:32.107Z,130
2017-06-22T16:39:57.585Z,125
2017-06-22T16:40:23.049Z,120
2017-06-22T16:40:48.545Z,110
2017-06-22T16:41:14.015Z,110
2017-06-22T16:41:39.458Z,110
2017-06-22T16:42:04.930Z,110
2017-06-22T16:42:30.394Z,110
2017-06-22T16:42:55.875Z,115
2017-06-22T16:43:21.324Z,110
2017-06-22T16:43:46.771Z,110
2017-06-22T16:44:12.210Z,115
2017-06-22T16:44:37.706Z,115
2017-06-22T16:45:03.159Z,115
2017-06-22T16:45:28.608Z,120
2017-06-22T16:45:54.118Z,120
2017-06-22T16:46:19.596Z,125